Time;durP1;ratioP1;P1;durP2;ratioP2;P2;SDS_P1;SDS_P2;PMS_P1;PMS_P2;Temp;Humidity;BMP_temperature;BMP_pressure;BME280_temperature;BME280_humidity;BME280_pressure;Samples;Min_cycle;Max_cycle;Signal;HPM_P1;HPM_P2
2021/04/15 06:52:02;;;;;;;;;;;;;;;;;;;;;
2021/04/15 06:55:04;;;;;;;2.85;2.08;;;5.00;97.90;;;;;;6175453;22;20015;-93
2021/04/15 06:58:24;;;;;;;6.55;2.30;;;5.10;97.80;;;;;;6184280;23;20043;-94
2021/04/15 07:01:07;;;;;;;7.22;2.00;;;5.30;97.40;;;;;;6099186;23;20160;-93
2021/04/15 07:04:10;;;;;;;4.88;2.05;;;5.40;97.00;;;;;;6067982;23;20024;-92
2021/04/15 07:07:09;;;;;;;;;;;;;;;;;;;;;
2021/04/15 07:10:25;;;;;;;4.10;1.60;;;5.70;96.70;;;;;;6093127;23;20077;-92
2021/04/15 07:12:58;;;;;;;4.07;1.83;;;5.80;96.40;;;;;;6094314;23;20022;-92
2021/04/15 07:15:54;;;;;;;4.05;1.90;;;5.90;96.30;;;;;;6014956;23;20343;-93
2021/04/15 07:18:51;;;;;;;6.65;1.75;;;6.10;96.20;;;;;;6027427;23;20027;-90
2021/04/15 07:21:41;;;;;;;7.07;1.95;;;6.30;96.00;;;;;;6008770;23;20062;-91
2021/04/15 07:24:39;;;;;;;3.10;1.42;;;6.50;95.70;;;;;;6038151;23;20320;-91
2021/04/15 07:27:57;;;;;;;4.90;1.67;;;6.70;95.60;;;;;;6072531;23;20054;-91
2021/04/15 07:30:49;;;;;;;6.80;2.35;;;6.80;95.10;;;;;;6159609;23;20337;-90
2021/04/15 07:33:41;;;;;;;4.40;1.67;;;7.00;95.00;;;;;;6141399;23;20036;-90
2021/04/15 07:36:36;;;;;;;4.00;1.52;;;7.10;94.20;;;;;;6271737;22;20023;-91
2021/04/15 07:39:31;;;;;;;10.25;1.98;;;7.30;94.60;;;;;;6252027;23;20024;-91
2021/04/15 07:42:24;;;;;;;7.25;1.60;;;7.40;94.50;;;;;;6207824;23;20099;-91
2021/04/15 07:45:08;;;;;;;5.65;1.50;;;7.60;94.40;;;;;;6230555;23;20069;-90
2021/04/15 07:47:35;;;;;;;4.97;1.35;;;7.70;94.40;;;;;;6217206;23;20021;-90
2021/04/15 07:50:11;;;;;;;3.17;1.10;;;7.90;94.00;;;;;;6213225;23;20028;-91
2021/04/15 07:53:04;;;;;;;2.90;1.35;;;8.00;93.90;;;;;;6243441;23;20016;-90
2021/04/15 07:55:43;;;;;;;5.00;1.35;;;8.20;93.90;;;;;;6241814;23;20031;-91
2021/04/15 07:58:48;;;;;;;7.82;1.60;;;8.40;93.80;;;;;;6227666;23;20020;-91
2021/04/15 08:01:18;;;;;;;5.25;1.23;;;8.50;92.50;;;;;;6226600;22;20020;-90
2021/04/15 08:03:57;;;;;;;5.75;1.35;;;8.60;93.20;;;;;;6243023;23;20020;-89
2021/04/15 08:06:33;;;;;;;4.00;1.00;;;8.70;92.90;;;;;;6233027;23;20025;-91
2021/04/15 08:09:11;;;;;;;4.47;1.75;;;8.80;92.80;;;;;;6252947;22;20026;-90
2021/04/15 08:11:57;;;;;;;4.80;1.25;;;8.80;92.50;;;;;;6230614;23;20020;-90
2021/04/15 08:14:50;;;;;;;4.47;1.15;;;9.00;92.60;;;;;;6237704;22;20028;-90
2021/04/15 08:18:03;;;;;;;6.15;1.33;;;9.10;92.60;;;;;;6241370;22;20020;-91
2021/04/15 08:20:52;;;;;;;4.15;1.52;;;9.20;92.20;;;;;;6241032;23;20337;-90
2021/04/15 08:23:22;;;;;;;5.32;1.70;;;9.30;92.30;;;;;;6228828;22;20456;-91
2021/04/15 08:26:18;;;;;;;4.50;1.83;;;9.40;92.20;;;;;;6242079;23;20012;-90
2021/04/15 08:29:27;;;;;;;6.18;1.60;;;9.50;92.00;;;;;;6202325;23;20036;-89
2021/04/15 08:31:53;;;;;;;5.32;1.50;;;9.60;91.30;;;;;;6228456;23;20012;-90
2021/04/15 08:34:44;;;;;;;4.50;1.70;;;9.70;91.60;;;;;;6240957;22;20028;-90
2021/04/15 08:37:47;;;;;;;5.35;1.92;;;9.90;91.30;;;;;;6227616;23;20016;-91
2021/04/15 08:40:43;;;;;;;6.18;1.50;;;10.10;91.00;;;;;;6216888;22;20055;-90
2021/04/15 08:43:37;;;;;;;7.32;1.88;;;10.10;90.10;;;;;;6242545;22;20545;-91
2021/04/15 08:46:40;;;;;;;3.22;1.30;;;10.20;90.50;;;;;;6166787;23;20059;-91
2021/04/15 08:49:27;;;;;;;4.95;1.73;;;10.20;89.40;;;;;;6074871;23;20092;-91
2021/04/15 08:51:57;;;;;;;6.82;1.80;;;10.30;90.10;;;;;;6122498;23;20022;-90
2021/04/15 08:54:39;;;;;;;5.85;1.30;;;10.30;88.40;;;;;;6120499;23;20026;-90
2021/04/15 08:57:24;;;;;;;4.70;1.48;;;10.30;87.90;;;;;;6122073;23;20158;-91
2021/04/15 08:59:59;;;;;;;5.72;1.52;;;10.30;88.50;;;;;;6100443;23;20022;-91
2021/04/15 09:02:51;;;;;;;10.48;2.45;;;10.40;88.70;;;;;;6108765;23;20418;-90
2021/04/15 09:05:37;;;;;;;9.73;1.50;;;10.50;87.10;;;;;;6084659;23;20041;-90
2021/04/15 09:08:39;;;;;;;4.35;1.27;;;10.60;87.20;;;;;;6097853;23;20022;-90
2021/04/15 09:11:31;;;;;;;13.27;1.60;;;10.60;86.50;;;;;;6105198;23;20045;-90
2021/04/15 09:14:15;;;;;;;7.70;1.85;;;10.50;88.10;;;;;;6097475;23;20028;-91
2021/04/15 09:17:02;;;;;;;4.43;1.45;;;10.50;88.70;;;;;;6097288;23;20098;-91
2021/04/15 09:19:46;;;;;;;4.72;1.35;;;10.50;88.20;;;;;;6084849;23;20330;-89
2021/04/15 09:22:33;;;;;;;5.10;1.80;;;10.40;88.20;;;;;;6103693;23;20119;-89
2021/04/15 09:25:20;;;;;;;7.38;1.52;;;10.40;88.60;;;;;;6234868;22;20090;-91
2021/04/15 09:27:56;;;;;;;6.65;1.60;;;10.30;88.80;;;;;;6213805;23;20048;-91
2021/04/15 09:31:20;;;;;;;5.30;1.27;;;10.20;89.60;;;;;;6212147;23;20131;-90
2021/04/15 09:33:58;;;;;;;4.18;1.40;;;10.40;89.70;;;;;;6184777;23;20024;-91
2021/04/15 09:36:37;;;;;;;3.75;1.83;;;10.50;88.50;;;;;;6195875;23;20091;-91
2021/04/15 09:39:36;;;;;;;5.07;1.30;;;10.50;88.40;;;;;;6187754;23;20027;-91
2021/04/15 09:42:40;;;;;;;4.22;1.50;;;10.50;88.20;;;;;;6176934;23;20530;-91
2021/04/15 09:45:29;;;;;;;6.53;1.50;;;10.60;88.80;;;;;;6172068;23;20016;-91
2021/04/15 09:48:32;;;;;;;4.38;1.23;;;10.80;88.90;;;;;;6173229;23;20024;-89
2021/04/15 09:51:29;;;;;;;3.55;1.00;;;10.90;84.90;;;;;;6211437;23;20467;-89
2021/04/15 09:54:27;;;;;;;6.00;1.35;;;11.00;84.90;;;;;;6144098;23;20476;-90
2021/04/15 09:57:19;;;;;;;5.65;1.20;;;11.20;85.60;;;;;;6197477;23;20021;-90
2021/04/15 10:00:18;;;;;;;9.93;1.45;;;11.30;84.60;;;;;;6194307;23;20016;-89
2021/04/15 10:02:48;;;;;;;6.80;1.33;;;11.30;84.60;;;;;;6211787;23;20021;-90
2021/04/15 10:05:37;;;;;;;1.83;0.82;;;11.30;84.40;;;;;;6211293;22;20020;-88
2021/04/15 10:08:19;;;;;;;4.82;1.20;;;11.40;84.20;;;;;;6238870;23;20016;-90
2021/04/15 10:11:01;;;;;;;4.10;1.27;;;11.40;83.60;;;;;;6222873;23;20582;-91
2021/04/15 10:13:50;;;;;;;6.45;1.25;;;11.50;84.40;;;;;;6229725;22;20491;-88
2021/04/15 10:16:26;;;;;;;5.65;1.17;;;11.60;83.60;;;;;;6243283;22;20019;-89
2021/04/15 10:19:18;;;;;;;7.60;1.58;;;11.70;82.30;;;;;;6243733;23;20027;-88
2021/04/15 10:21:57;;;;;;;1.85;0.93;;;11.60;81.00;;;;;;6243302;23;20013;-89
2021/04/15 10:24:29;;;;;;;;;;;11.70;81.70;;;;;;6244156;22;21628;-88
2021/04/15 10:26:59;;;;;;;4.95;1.23;;;11.70;81.00;;;;;;6244331;23;19946;-89
2021/04/15 10:29:34;;;;;;;3.10;1.30;;;11.80;81.60;;;;;;6243124;22;20020;-90
2021/04/15 10:32:34;;;;;;;4.10;1.27;;;11.90;81.60;;;;;;6244313;23;20024;-89
2021/04/15 10:35:22;;;;;;;2.80;1.35;;;12.00;80.20;;;;;;6242899;23;20494;-89
2021/04/15 10:38:11;;;;;;;7.38;1.45;;;12.20;81.90;;;;;;6244232;23;20095;-90
2021/04/15 10:41:14;;;;;;;3.97;1.33;;;12.10;81.40;;;;;;6230023;23;20028;-90
2021/04/15 10:43:54;;;;;;;4.53;1.30;;;11.90;80.80;;;;;;6233614;23;20090;-90
2021/04/15 10:46:56;;;;;;;4.05;1.40;;;11.80;81.70;;;;;;6201927;23;20028;-91
2021/04/15 10:49:46;;;;;;;5.40;1.40;;;11.90;83.20;;;;;;6228673;22;20091;-89
2021/04/15 10:52:52;;;;;;;3.45;1.30;;;11.80;82.20;;;;;;6227755;23;20016;-91
2021/04/15 10:55:38;;;;;;;3.47;1.65;;;11.90;82.30;;;;;;6202914;23;20024;-90
2021/04/15 10:58:29;;;;;;;2.40;1.10;;;12.10;82.30;;;;;;6224317;22;20091;-89
2021/04/15 11:00:57;;;;;;;6.35;1.33;;;12.20;81.00;;;;;;6230384;23;20095;-91
2021/04/15 11:03:34;;;;;;;3.35;1.27;;;12.20;81.10;;;;;;6224478;23;20079;-93
2021/04/15 11:06:04;;;;;;;11.98;1.75;;;12.30;80.30;;;;;;6229295;22;20024;-89
2021/04/15 11:08:31;;;;;;;5.28;1.38;;;12.30;80.20;;;;;;6200322;23;20086;-88
2021/04/15 11:11:15;;;;;;;2.38;1.20;;;12.40;80.20;;;;;;6240578;23;20358;-89
2021/04/15 11:13:47;;;;;;;8.98;1.10;;;12.40;78.40;;;;;;6227669;22;20020;-88
2021/04/15 11:16:23;;;;;;;2.90;0.80;;;12.40;75.90;;;;;;6243006;22;20032;-89
2021/04/15 11:18:50;;;;;;;2.88;0.88;;;12.40;76.40;;;;;;6230129;23;20024;-88
2021/04/15 11:21:24;;;;;;;6.30;1.10;;;12.50;77.60;;;;;;6239782;22;20021;-89
2021/04/15 11:23:54;;;;;;;8.52;1.15;;;12.50;77.40;;;;;;6241530;23;20103;-88
2021/04/15 11:26:20;;;;;;;4.35;1.10;;;12.50;77.20;;;;;;6241787;22;20030;-88
2021/04/15 11:28:49;;;;;;;5.60;1.20;;;12.60;76.80;;;;;;6242503;23;20078;-89
2021/04/15 11:31:19;;;;;;;;;;;12.50;76.10;;;;;;6242258;22;20031;-88
2021/04/15 11:34:03;;;;;;;2.85;1.40;;;12.50;75.80;;;;;;6242537;23;20341;-90
2021/04/15 11:36:34;;;;;;;4.30;1.10;;;12.60;75.90;;;;;;6211773;23;20027;-89
2021/04/15 11:39:03;;;;;;;3.47;1.20;;;12.60;75.60;;;;;;6212035;23;20036;-89
2021/04/15 11:41:38;;;;;;;5.13;1.17;;;12.70;74.70;;;;;;6241838;23;20353;-89
2021/04/15 11:44:09;;;;;;;2.60;1.02;;;12.70;73.90;;;;;;6228620;22;20035;-89
2021/04/15 11:46:48;;;;;;;3.60;1.08;;;12.70;73.80;;;;;;6243390;23;20095;-88
2021/04/15 11:49:20;;;;;;;2.03;0.80;;;12.80;73.90;;;;;;6244204;22;20082;-90
2021/04/15 11:52:02;;;;;;;3.88;1.15;;;12.80;72.80;;;;;;6247502;23;20022;-90
2021/04/15 11:54:46;;;;;;;3.35;0.90;;;12.80;71.70;;;;;;6218079;22;20498;-90
2021/04/15 11:57:19;;;;;;;2.13;0.70;;;12.80;70.30;;;;;;6260423;22;20020;-89
2021/04/15 12:00:14;;;;;;;4.13;0.98;;;12.90;70.70;;;;;;6230292;23;20043;-89
2021/04/15 12:02:46;;;;;;;4.22;1.10;;;12.90;71.20;;;;;;6241513;23;20530;-89
2021/04/15 12:05:30;;;;;;;3.13;1.05;;;12.90;70.50;;;;;;6241778;22;20047;-88
2021/04/15 12:08:02;;;;;;;2.25;0.90;;;12.90;70.50;;;;;;6242514;23;20054;-90
2021/04/15 12:10:32;;;;;;;5.07;1.00;;;12.90;70.80;;;;;;6241383;22;20066;-89
2021/04/15 12:13:12;;;;;;;1.42;0.57;;;12.90;70.70;;;;;;6242578;23;20436;-89
2021/04/15 12:15:54;;;;;;;6.55;1.00;;;13.00;69.20;;;;;;6241065;23;20054;-91
2021/04/15 12:19:18;;;;;;;7.45;0.80;;;13.00;68.70;;;;;;6215341;23;20096;-89
2021/04/15 12:22:06;;;;;;;3.58;0.77;;;13.00;68.30;;;;;;6088327;23;20033;-89
2021/04/15 12:24:51;;;;;;;3.58;1.02;;;13.00;68.00;;;;;;6138861;23;20021;-88
2021/04/15 12:27:24;;;;;;;2.90;0.70;;;13.10;68.00;;;;;;6125558;23;20025;-89
2021/04/15 12:30:06;;;;;;;3.15;0.70;;;13.10;67.70;;;;;;6126095;23;20025;-89
2021/04/15 12:32:47;;;;;;;3.17;0.90;;;13.20;68.20;;;;;;6150020;23;20022;-88
2021/04/15 12:35:29;;;;;;;3.33;0.80;;;13.20;67.80;;;;;;6125733;23;20352;-89
2021/04/15 12:38:18;;;;;;;2.70;0.80;;;13.20;67.80;;;;;;6113126;23;20322;-89
2021/04/15 12:40:51;;;;;;;1.92;0.60;;;13.30;66.80;;;;;;6114047;23;20056;-90
2021/04/15 12:43:31;;;;;;;2.55;0.60;;;13.40;66.50;;;;;;6107483;23;20026;-90
2021/04/15 12:46:06;;;;;;;2.97;1.08;;;13.50;66.40;;;;;;6128563;23;20024;-90
2021/04/15 12:48:50;;;;;;;2.90;0.50;;;13.60;64.80;;;;;;6101028;23;20069;-90
2021/04/15 12:51:34;;;;;;;3.33;0.90;;;13.60;64.80;;;;;;6137537;22;20539;-89
2021/04/15 12:54:07;;;;;;;4.05;0.98;;;13.60;62.70;;;;;;6219236;23;20012;-90
2021/04/15 12:56:56;;;;;;;3.25;0.88;;;13.60;62.50;;;;;;6212847;23;20028;-90
2021/04/15 12:59:33;;;;;;;1.80;0.90;;;13.70;64.20;;;;;;6204361;22;20014;-90
2021/04/15 13:02:01;;;;;;;4.40;1.10;;;13.80;64.30;;;;;;6246432;23;20012;-90
2021/04/15 13:04:42;;;;;;;;;;;;;;;;;;;;;
2021/04/15 13:07:27;;;;;;;3.92;1.27;;;14.00;64.20;;;;;;6227244;23;20047;-90
2021/04/15 13:10:14;;;;;;;2.60;1.40;;;13.90;63.10;;;;;;6237972;23;20028;-89
2021/04/15 13:12:43;;;;;;;2.33;1.50;;;13.90;62.70;;;;;;6260373;23;20466;-90
2021/04/15 13:15:25;;;;;;;2.78;1.50;;;14.00;63.90;;;;;;6243178;22;20087;-90
2021/04/15 13:18:04;;;;;;;2.75;1.45;;;13.90;62.70;;;;;;6232845;23;20032;-90
2021/04/15 13:20:40;;;;;;;1.83;1.58;;;13.90;63.30;;;;;;6241149;23;20070;-91
2021/04/15 13:23:07;;;;;;;2.70;1.52;;;13.90;64.40;;;;;;6229420;23;20016;-91
2021/04/15 13:25:50;;;;;;;3.15;1.75;;;13.80;64.10;;;;;;6230163;22;20070;-91
2021/04/15 13:28:25;;;;;;;3.50;1.80;;;13.90;65.30;;;;;;6243717;22;20016;-91
2021/04/15 13:30:57;;;;;;;4.68;2.30;;;13.90;65.40;;;;;;6243653;23;20047;-91
2021/04/15 13:33:30;;;;;;;3.78;2.03;;;13.90;63.30;;;;;;6229478;23;20029;-90
2021/04/15 13:36:00;;;;;;;6.40;2.28;;;13.70;62.90;;;;;;6241947;22;20015;-90
2021/04/15 13:41:27;;;;;;;4.07;2.47;;;13.80;65.30;;;;;;6237431;22;20462;-91
2021/04/15 13:44:11;;;;;;;4.15;2.35;;;13.80;65.30;;;;;;6224178;23;20086;-91
2021/04/15 13:46:41;;;;;;;6.13;2.55;;;13.90;64.10;;;;;;6219923;23;20020;-92
2021/04/15 13:49:23;;;;;;;6.40;2.88;;;13.90;64.60;;;;;;6247460;22;20073;-91
2021/04/15 13:51:49;;;;;;;4.28;2.75;;;13.80;62.10;;;;;;6250933;22;20077;-92
2021/04/15 13:54:40;;;;;;;4.78;3.00;;;13.80;62.90;;;;;;6249547;22;20435;-91
2021/04/15 13:57:20;;;;;;;5.18;3.35;;;13.80;63.30;;;;;;6208546;22;20020;-92
2021/04/15 14:00:06;;;;;;;5.68;2.92;;;13.80;63.20;;;;;;6249250;22;20008;-91
2021/04/15 14:02:42;;;;;;;3.50;3.00;;;13.80;64.40;;;;;;6236267;22;20046;-91
2021/04/15 14:05:41;;;;;;;5.32;2.83;;;13.90;64.90;;;;;;6248750;22;20020;-90
2021/04/15 14:08:41;;;;;;;3.47;2.92;;;13.90;64.50;;;;;;6238172;22;20024;-91
2021/04/15 14:11:45;;;;;;;4.60;2.85;;;14.00;64.70;;;;;;6245949;22;20110;-91
2021/04/15 14:14:29;;;;;;;4.93;3.85;;;14.00;64.10;;;;;;6250626;22;20103;-91
2021/04/15 14:16:59;;;;;;;5.85;3.90;;;14.00;64.40;;;;;;6247153;22;20074;-92
2021/04/15 14:19:37;;;;;;;5.05;3.70;;;14.00;64.80;;;;;;6232941;22;20332;-91
2021/04/15 14:22:08;;;;;;;5.07;3.70;;;13.90;64.20;;;;;;6248926;22;20062;-91
2021/04/15 14:24:38;;;;;;;6.22;3.83;;;13.90;65.10;;;;;;6263759;22;20016;-90
2021/04/15 14:27:18;;;;;;;5.43;3.88;;;14.00;65.20;;;;;;6249312;22;20020;-91
2021/04/15 14:29:47;;;;;;;5.75;4.70;;;14.10;65.50;;;;;;6247061;22;20014;-91
2021/04/15 14:32:24;;;;;;;6.10;5.00;;;14.20;66.20;;;;;;6245151;22;20447;-91
2021/04/15 14:35:10;;;;;;;17.00;5.07;;;14.20;64.80;;;;;;6246854;22;20023;-91
2021/04/15 14:37:42;;;;;;;5.65;5.00;;;14.30;65.20;;;;;;6243295;22;20015;-92
2021/04/15 14:40:18;;;;;;;6.50;4.85;;;14.30;64.20;;;;;;6244674;22;20022;-92
2021/04/15 14:42:46;;;;;;;6.25;5.35;;;14.30;65.10;;;;;;6232765;22;20309;-91
2021/04/15 14:45:54;;;;;;;6.90;5.27;;;14.30;65.10;;;;;;6232133;22;20019;-92
2021/04/15 14:48:29;;;;;;;;;;;14.20;64.30;;;;;;6099614;23;20018;-91
2021/04/15 14:51:12;;;;;;;6.68;6.03;;;14.00;66.30;;;;;;6119158;23;19921;-91
2021/04/15 14:53:44;;;;;;;7.80;6.25;;;14.10;66.20;;;;;;6124411;23;20018;-91
2021/04/15 14:56:19;;;;;;;7.53;6.72;;;14.10;67.10;;;;;;6124757;23;20454;-91
2021/04/15 14:58:49;;;;;;;7.03;6.32;;;14.10;66.40;;;;;;6111384;23;20358;-92
2021/04/15 15:01:36;;;;;;;7.53;6.47;;;14.20;66.70;;;;;;6126542;23;20017;-91
2021/04/15 15:04:31;;;;;;;8.45;7.50;;;14.30;66.60;;;;;;6116364;23;20064;-92
2021/04/15 15:07:01;;;;;;;8.65;7.28;;;14.20;66.00;;;;;;6102860;23;20414;-91
2021/04/15 15:09:32;;;;;;;17.55;8.15;;;14.30;67.10;;;;;;6126388;23;20113;-89
2021/04/15 15:12:03;;;;;;;11.43;7.03;;;14.30;67.60;;;;;;6127255;23;20017;-91
2021/04/15 15:14:35;;;;;;;10.55;8.20;;;14.30;67.20;;;;;;6125823;23;20027;-91
2021/04/15 15:17:06;;;;;;;11.95;7.88;;;14.30;66.70;;;;;;6152179;23;20013;-91
2021/04/15 15:19:39;;;;;;;9.23;8.18;;;14.10;66.20;;;;;;6128664;23;20022;-91
2021/04/15 15:22:23;;;;;;;10.73;8.52;;;14.10;66.90;;;;;;6129507;23;20029;-91
2021/04/15 15:24:50;;;;;;;10.32;8.25;;;14.10;66.80;;;;;;6237433;22;20032;-91
2021/04/15 15:27:26;;;;;;;9.43;8.43;;;14.10;66.80;;;;;;6287577;22;20301;-92
2021/04/15 15:30:08;;;;;;;11.75;9.40;;;14.10;66.70;;;;;;6281448;22;20095;-91
2021/04/15 15:32:41;;;;;;;10.43;8.85;;;14.20;67.00;;;;;;6274350;22;20023;-91
2021/04/15 15:35:12;;;;;;;10.27;9.20;;;14.20;66.90;;;;;;6252448;22;20456;-92
2021/04/15 15:37:59;;;;;;;10.95;8.60;;;14.20;66.40;;;;;;6298350;22;20020;-91
2021/04/15 15:40:26;;;;;;;10.68;9.02;;;14.30;66.10;;;;;;6268806;22;20024;-92
2021/04/15 15:42:56;;;;;;;12.32;8.45;;;14.30;66.30;;;;;;6273607;22;20053;-92
2021/04/15 15:45:43;;;;;;;10.10;9.20;;;14.20;66.00;;;;;;6257938;22;20042;-92
2021/04/15 15:48:49;;;;;;;11.07;9.60;;;14.10;65.40;;;;;;6265217;22;20027;-91
2021/04/15 15:51:44;;;;;;;11.93;10.73;;;14.20;66.10;;;;;;6272047;22;20454;-92
2021/04/15 15:54:47;;;;;;;12.68;11.02;;;14.30;67.10;;;;;;6272712;22;20378;-91
2021/04/15 15:57:19;;;;;;;12.20;11.02;;;14.20;68.00;;;;;;6271790;22;20019;-92
2021/04/15 15:59:59;;;;;;;18.77;10.98;;;14.30;67.50;;;;;;6273402;22;20012;-92
2021/04/15 16:02:49;;;;;;;12.27;10.98;;;14.30;67.40;;;;;;6273456;22;20027;-92
2021/04/15 16:05:19;;;;;;;17.45;15.75;;;14.20;66.50;;;;;;6273218;22;20469;-92
2021/04/15 16:08:20;;;;;;;15.23;13.48;;;14.10;66.70;;;;;;6254075;22;20019;-91
2021/04/15 16:10:48;;;;;;;13.05;11.27;;;14.00;66.50;;;;;;6241305;22;20026;-91
2021/04/15 16:13:20;;;;;;;12.68;11.38;;;14.00;66.70;;;;;;6256405;22;20016;-91
2021/04/15 16:15:51;;;;;;;16.73;15.02;;;14.10;67.00;;;;;;6273490;22;20023;-92
2021/04/15 16:18:29;;;;;;;16.55;14.82;;;14.10;67.30;;;;;;6272227;22;20020;-91
2021/04/15 16:21:04;;;;;;;13.60;12.27;;;14.20;68.10;;;;;;6260957;22;20089;-92
2021/04/15 16:23:35;;;;;;;27.77;20.20;;;14.30;67.60;;;;;;6243272;22;20351;-92
2021/04/15 16:26:09;;;;;;;14.93;13.43;;;14.30;67.70;;;;;;6265884;22;20035;-93
2021/04/15 16:28:39;;;;;;;16.15;14.43;;;14.30;67.60;;;;;;6272483;22;20039;-93
2021/04/15 16:31:18;;;;;;;23.58;16.45;;;14.30;67.40;;;;;;6261356;22;20020;-92
2021/04/15 16:33:55;;;;;;;28.63;22.20;;;14.10;67.20;;;;;;6225569;22;20018;-94
2021/04/15 16:36:39;;;;;;;;;;;;;;;;;;;;;
2021/04/15 16:39:20;;;;;;;;;;;;;;;;;;;;;
2021/04/15 16:42:13;;;;;;;17.50;14.27;;;13.80;67.20;;;;;;6161344;23;20085;-91
2021/04/15 16:44:54;;;;;;;14.85;13.18;;;13.80;67.80;;;;;;6138867;23;20031;-89
2021/04/15 16:47:20;;;;;;;14.80;13.23;;;13.80;68.30;;;;;;6154977;23;20017;-88
2021/04/15 16:49:50;;;;;;;19.38;15.40;;;13.90;68.00;;;;;;6155452;23;20377;-92
2021/04/15 16:52:18;;;;;;;14.18;12.73;;;14.00;68.60;;;;;;6168851;23;20020;-87
2021/04/15 16:54:45;;;;;;;14.60;13.05;;;14.10;68.80;;;;;;6179371;23;20024;-88
2021/04/15 16:57:13;;;;;;;14.95;13.15;;;14.10;68.60;;;;;;6176765;23;20021;-89
2021/04/15 16:59:40;;;;;;;15.98;14.40;;;14.00;68.70;;;;;;6196757;22;20060;-92
2021/04/15 17:02:13;;;;;;;15.32;13.73;;;13.90;69.40;;;;;;6258038;22;20102;-91
2021/04/15 17:04:43;;;;;;;14.52;13.13;;;13.80;70.00;;;;;;6272240;22;20019;-92
2021/04/15 17:07:15;;;;;;;14.13;12.73;;;13.60;70.10;;;;;;6261549;22;20020;-92
2021/04/15 17:09:42;;;;;;;14.30;13.00;;;13.50;70.30;;;;;;6249621;22;20019;-92
2021/04/15 17:12:10;;;;;;;14.55;13.13;;;13.40;70.50;;;;;;6254724;22;20026;-91
2021/04/15 17:14:44;;;;;;;14.63;13.32;;;13.40;70.90;;;;;;6254984;22;20542;-92
2021/04/15 17:17:13;;;;;;;17.77;14.60;;;13.30;70.60;;;;;;6213091;22;20022;-93
2021/04/15 17:19:44;;;;;;;20.58;17.73;;;13.30;70.70;;;;;;6236849;22;20018;-93
2021/04/15 17:22:19;;;;;;;13.77;12.48;;;13.30;70.90;;;;;;6245375;22;20091;-95
2021/04/15 17:24:54;;;;;;;14.25;12.77;;;13.30;70.50;;;;;;6241173;22;20012;-94
2021/04/15 17:27:35;;;;;;;;;;;;;;;;;;;;;
2021/04/15 17:30:12;;;;;;;14.80;13.27;;;13.20;70.50;;;;;;6259125;22;20309;-93
2021/04/15 17:32:39;;;;;;;15.32;13.15;;;13.00;71.10;;;;;;6260586;22;20030;-93
2021/04/15 17:35:24;;;;;;;;;;;;;;;;;;;;;
2021/04/15 17:38:16;;;;;;;16.80;14.45;;;12.90;70.90;;;;;;6245188;22;20016;-94
2021/04/15 17:41:06;;;;;;;15.13;13.43;;;12.80;71.00;;;;;;6208138;22;20023;-92
2021/04/15 17:43:45;;;;;;;15.95;14.02;;;12.70;71.10;;;;;;6218736;22;20019;-94
2021/04/15 17:46:16;;;;;;;12.88;11.38;;;12.70;71.10;;;;;;6213830;22;20046;-94
2021/04/15 17:49:14;;;;;;;18.13;12.23;;;12.70;71.20;;;;;;6199401;23;20103;-93
2021/04/15 17:51:51;;;;;;;;;;;;;;;;;;;;;
2021/04/15 17:54:42;;;;;;;;;;;;;;;;;;;;;
2021/04/15 17:57:31;;;;;;;;;;;;;;;;;;;;;
2021/04/15 18:00:28;;;;;;;;;;;;;;;;;;;;;
2021/04/15 18:03:11;;;;;;;11.40;10.20;;;13.20;70.10;;;;;;6164108;23;20023;-95
2021/04/15 18:06:50;;;;;;;;;;;;;;;;;;;;;
2021/04/15 18:09:57;;;;;;;;;;;;;;;;;;;;;
2021/04/15 18:12:58;;;;;;;13.98;10.82;;;14.00;68.20;;;;;;5961062;23;20022;-94
2021/04/15 18:20:03;;;;;;;;;;;;;;;;;;;;;
2021/04/15 18:22:41;;;;;;;11.20;9.98;;;14.30;67.90;;;;;;5851714;23;20044;-95
2021/04/15 18:25:35;;;;;;;10.98;9.60;;;14.30;67.70;;;;;;5873016;23;20056;-95
2021/04/15 18:28:23;;;;;;;10.82;9.73;;;14.30;67.60;;;;;;5862082;23;20083;-95
2021/04/15 18:31:18;;;;;;;;;;;;;;;;;;;;;
2021/04/15 18:34:23;;;;;;;9.57;8.57;;;13.80;67.90;;;;;;5885311;23;20595;-95
2021/04/15 18:37:09;;;;;;;13.15;8.75;;;13.40;68.80;;;;;;5988020;23;20031;-92
2021/04/15 18:39:48;;;;;;;;;;;;;;;;;;;;;
2021/04/15 18:42:38;;;;;;;10.57;9.48;;;12.50;70.30;;;;;;5972277;23;20027;-93
2021/04/15 18:45:23;;;;;;;9.10;8.20;;;12.10;71.20;;;;;;5978690;23;20051;-94
2021/04/15 18:48:24;;;;;;;9.45;8.35;;;11.70;71.90;;;;;;5987425;23;20502;-94
2021/04/15 18:51:25;;;;;;;;;;;;;;;;;;;;;
2021/04/15 18:54:16;;;;;;;;;;;;;;;;;;;;;
2021/04/15 18:57:27;;;;;;;;;;;;;;;;;;;;;
2021/04/15 19:00:57;;;;;;;9.93;8.20;;;10.70;75.10;;;;;;6028206;23;20081;-95
2021/04/15 19:04:00;;;;;;;;;;;;;;;;;;;;;
2021/04/15 19:07:03;;;;;;;;;;;;;;;;;;;;;
2021/04/15 19:10:16;;;;;;;7.80;6.22;;;10.00;76.30;;;;;;5887936;24;20032;-94
2021/04/15 19:13:03;;;;;;;9.98;7.00;;;9.80;77.20;;;;;;5836050;24;20026;-91
2021/04/15 20:21:36;;;;;;;4.57;3.00;;;7.70;87.10;;;;;;6141959;23;20024;-95
2021/04/15 20:24:35;;;;;;;5.22;2.88;;;7.60;87.10;;;;;;6127735;23;20401;-95
2021/04/15 20:28:03;;;;;;;6.47;3.00;;;7.60;87.70;;;;;;5970706;23;20039;-96
2021/04/15 20:31:28;;;;;;;7.47;3.05;;;7.50;88.20;;;;;;5856855;24;20030;-95
2021/04/15 21:09:51;;;;;;;;;;;;;;;;;;;;;
2021/04/15 21:12:21;;;;;;;4.07;2.28;;;6.70;91.80;;;;;;5830834;24;20025;-94
